Time;durP1;ratioP1;P1;durP2;ratioP2;P2;SDS_P1;SDS_P2;PMS_P1;PMS_P2;Temp;Humidity;BMP_temperature;BMP_pressure;BME280_temperature;BME280_humidity;BME280_pressure;Samples;Min_cycle;Max_cycle;Signal;HPM_P1;HPM_P2
2021/10/08 00:02:26;;;;;;;5.25;2.70;;;;;;;3.12;52.49;103042.38;1734238;83;21159;-61
2021/10/08 00:04:59;;;;;;;7.03;2.62;;;;;;;3.15;52.19;103041.05;1733986;82;21226;-62
2021/10/08 00:07:42;;;;;;;6.20;2.30;;;;;;;3.19;52.12;103041.41;1707262;83;21289;-61
2021/10/08 00:10:18;;;;;;;4.87;2.02;;;;;;;3.21;51.92;103042.24;1735451;83;21207;-62
2021/10/08 00:13:02;;;;;;;11.35;2.20;;;;;;;3.22;51.67;103037.06;1734451;83;21202;-62
2021/10/08 00:15:38;;;;;;;6.58;3.15;;;;;;;3.24;51.71;103039.19;1735088;83;21136;-62
2021/10/08 00:18:19;;;;;;;8.70;3.02;;;;;;;3.25;51.61;103042.61;1735334;83;21298;-62
2021/10/08 00:20:54;;;;;;;6.00;2.45;;;;;;;3.25;51.57;103041.31;1734412;83;21159;-63
2021/10/08 00:23:29;;;;;;;8.98;3.00;;;;;;;3.25;51.61;103040.88;1735168;83;21183;-62
2021/10/08 00:26:06;;;;;;;7.12;2.70;;;;;;;3.28;51.53;103042.56;1735199;83;21180;-62
2021/10/08 00:28:44;;;;;;;7.80;2.15;;;;;;;3.28;51.45;103039.55;1734173;82;21183;-62
2021/10/08 00:31:20;;;;;;;8.48;2.08;;;;;;;3.28;51.42;103043.86;1735757;83;21302;-61
2021/10/08 00:33:53;;;;;;;2.47;1.50;;;;;;;3.28;51.39;103042.14;1734789;83;21297;-63
2021/10/08 00:36:27;;;;;;;4.47;1.60;;;;;;;3.28;51.24;103036.09;1734917;83;21411;-62
2021/10/08 00:39:05;;;;;;;5.20;1.90;;;;;;;3.28;51.25;103044.72;1734710;83;21766;-62
2021/10/08 00:41:43;;;;;;;4.03;1.60;;;;;;;3.25;51.36;103043.47;1735895;83;21187;-61
2021/10/08 00:44:20;;;;;;;8.65;2.10;;;;;;;3.23;51.53;103043.93;1734593;83;21293;-63
2021/10/08 00:46:54;;;;;;;4.00;1.85;;;;;;;3.23;51.84;103046.95;1730270;83;21706;-63
2021/10/08 00:49:41;;;;;;;4.28;2.25;;;;;;;3.21;52.09;103043.11;1734537;83;21329;-62
2021/10/08 00:52:07;;;;;;;4.80;2.12;;;;;;;3.20;52.34;103047.02;1733080;83;21270;-62
2021/10/08 00:54:40;;;;;;;4.70;2.00;;;;;;;3.17;52.46;103049.21;1734642;82;21171;-62
2021/10/08 00:57:13;;;;;;;9.00;3.00;;;;;;;3.13;52.33;103050.57;1734981;83;21333;-62
2021/10/08 00:59:49;;;;;;;8.68;4.05;;;;;;;3.11;52.30;103053.16;1734528;83;21864;-62
2021/10/08 01:02:26;;;;;;;21.65;8.03;;;;;;;3.06;52.35;103052.36;1735962;83;21677;-62
2021/10/08 01:05:03;;;;;;;19.17;6.78;;;;;;;3.02;52.47;103048.55;1734415;83;21317;-62
2021/10/08 01:07:42;;;;;;;20.85;7.85;;;;;;;3.00;52.45;103049.01;1735976;83;21203;-61
2021/10/08 01:10:22;;;;;;;25.80;9.78;;;;;;;2.99;52.19;103047.28;1734409;83;21223;-62
2021/10/08 01:13:00;;;;;;;24.25;11.20;;;;;;;2.98;52.25;103050.77;1735752;83;21254;-62
2021/10/08 01:15:35;;;;;;;22.52;10.18;;;;;;;2.94;52.43;103051.23;1734259;83;21194;-62
2021/10/08 01:18:11;;;;;;;26.82;10.78;;;;;;;2.91;52.55;103048.70;1735732;83;21262;-62
2021/10/08 01:20:48;;;;;;;16.05;6.35;;;;;;;2.87;52.63;103054.77;1735715;83;21271;-62
2021/10/08 01:23:29;;;;;;;12.82;5.42;;;;;;;2.83;52.52;103049.66;1735842;83;21510;-62
2021/10/08 01:26:05;;;;;;;14.83;7.53;;;;;;;2.79;52.44;103054.46;1735511;83;21298;-62
2021/10/08 01:28:45;;;;;;;12.47;7.15;;;;;;;2.76;52.44;103059.66;1735794;83;21271;-62
2021/10/08 01:31:24;;;;;;;10.00;6.15;;;;;;;2.72;52.40;103061.45;1735946;83;21160;-62
2021/10/08 01:34:03;;;;;;;15.28;4.92;;;;;;;2.70;52.38;103063.17;1708126;83;21321;-63
2021/10/08 01:36:38;;;;;;;3.83;2.75;;;;;;;2.63;52.35;103064.98;1733919;83;21806;-62
2021/10/08 01:39:11;;;;;;;;;;;;;;;2.58;52.36;103069.34;1738119;83;21291;-63
2021/10/08 01:41:44;;;;;;;5.60;1.85;;;;;;;2.55;52.33;103066.81;1735924;83;20178;-61
2021/10/08 01:44:20;;;;;;;6.03;2.60;;;;;;;2.50;52.26;103067.30;1735392;83;21274;-61
2021/10/08 01:46:58;;;;;;;3.92;2.05;;;;;;;2.46;52.33;103066.89;1734867;83;21325;-63
2021/10/08 01:49:35;;;;;;;5.78;2.33;;;;;;;2.41;52.45;103067.37;1735416;83;21329;-62
2021/10/08 01:52:11;;;;;;;5.30;2.30;;;;;;;2.37;52.48;103066.98;1735745;83;21297;-62
2021/10/08 01:54:49;;;;;;;5.08;2.10;;;;;;;2.35;52.59;103066.58;1734079;83;21148;-61
2021/10/08 01:57:25;;;;;;;4.35;2.15;;;;;;;2.34;52.63;103073.94;1734110;83;21915;-61
2021/10/08 02:00:00;;;;;;;5.03;2.50;;;;;;;2.35;52.66;103070.46;1735562;83;21291;-61
2021/10/08 02:02:38;;;;;;;4.33;1.95;;;;;;;2.35;52.62;103080.37;1734525;83;21202;-62
2021/10/08 02:05:13;;;;;;;4.35;1.85;;;;;;;2.33;52.71;103082.55;1734241;83;21881;-62
2021/10/08 02:07:54;;;;;;;3.80;1.80;;;;;;;2.33;52.71;103082.55;1735058;83;21215;-61
2021/10/08 02:10:32;;;;;;;3.67;2.25;;;;;;;2.33;52.70;103078.67;1735023;83;21152;-61
2021/10/08 02:13:05;;;;;;;6.05;2.10;;;;;;;2.32;52.75;103086.00;1736030;83;21167;-61
2021/10/08 02:15:50;;;;;;;3.75;1.95;;;;;;;2.31;52.73;103085.16;1734979;83;21329;-61
2021/10/08 02:18:24;;;;;;;7.37;2.47;;;;;;;2.28;52.77;103077.86;1734657;83;21258;-61
2021/10/08 02:20:59;;;;;;;11.08;2.77;;;;;;;2.26;52.80;103086.94;1706073;83;21183;-62
2021/10/08 02:23:39;;;;;;;7.90;2.17;;;;;;;2.24;52.86;103086.09;1735725;83;21254;-62
2021/10/08 02:26:16;;;;;;;6.97;2.22;;;;;;;2.22;52.94;103086.98;1734638;83;21334;-60
2021/10/08 02:28:49;;;;;;;7.25;2.30;;;;;;;2.19;53.06;103093.46;1734442;83;21168;-60
2021/10/08 02:31:26;;;;;;;3.45;1.90;;;;;;;2.18;53.08;103098.20;1733888;82;21163;-61
2021/10/08 02:34:01;;;;;;;10.35;2.70;;;;;;;2.18;53.11;103097.77;1735870;83;21155;-61
2021/10/08 02:36:36;;;;;;;4.47;2.33;;;;;;;2.18;53.16;103102.07;1734711;83;21750;-60
2021/10/08 02:39:15;;;;;;;5.10;2.72;;;;;;;2.18;53.18;103108.10;1734008;83;21159;-61
2021/10/08 02:41:50;;;;;;;4.53;2.08;;;;;;;2.18;53.19;103109.39;1734652;83;21329;-63
2021/10/08 02:44:26;;;;;;;9.30;2.87;;;;;;;2.18;53.18;103108.53;1735716;83;21155;-60
2021/10/08 02:47:06;;;;;;;7.85;2.50;;;;;;;2.15;53.28;103108.58;1734385;83;21801;-60
2021/10/08 02:49:43;;;;;;;6.42;2.83;;;;;;;2.13;53.31;103106.42;1735715;83;21195;-60
2021/10/08 02:52:21;;;;;;;4.10;2.30;;;;;;;2.11;53.31;103103.86;1734154;83;21223;-60
2021/10/08 02:54:56;;;;;;;9.05;2.90;;;;;;;2.09;53.41;103106.90;1731595;83;21294;-60
2021/10/08 02:57:34;;;;;;;6.53;2.95;;;;;;;2.08;53.45;103109.50;1735376;82;21829;-61
2021/10/08 03:00:10;;;;;;;8.05;2.92;;;;;;;2.08;53.48;103110.34;1735319;82;21289;-60
2021/10/08 03:02:51;;;;;;;6.35;2.80;;;;;;;2.05;53.59;103104.76;1741203;82;21301;-60
2021/10/08 03:05:29;;;;;;;13.95;3.25;;;;;;;2.03;53.68;103098.75;1741127;82;21242;-60
2021/10/08 03:08:07;;;;;;;6.37;2.98;;;;;;;2.02;53.83;103115.14;1741083;82;21151;-60
2021/10/08 03:10:51;;;;;;;7.05;2.77;;;;;;;1.98;53.96;103113.44;1741030;82;21293;-59
2021/10/08 03:13:27;;;;;;;7.78;2.90;;;;;;;1.97;54.01;103116.91;1741502;82;21262;-60
2021/10/08 03:16:02;;;;;;;7.65;3.15;;;;;;;1.96;54.08;103111.73;1741236;82;21175;-61
2021/10/08 03:18:37;;;;;;;5.30;2.72;;;;;;;1.95;54.19;103114.77;1740677;82;21231;-60
2021/10/08 03:21:16;;;;;;;8.70;3.12;;;;;;;1.97;54.21;103116.04;1739564;82;21175;-60
2021/10/08 03:23:50;;;;;;;9.75;4.08;;;;;;;1.95;54.18;103122.52;1741454;82;21310;-60
2021/10/08 03:26:28;;;;;;;5.08;3.22;;;;;;;1.94;54.20;103114.77;1740905;82;21186;-60
2021/10/08 03:29:07;;;;;;;7.62;3.42;;;;;;;1.94;54.27;103115.63;1740557;82;21285;-62
2021/10/08 03:31:41;;;;;;;7.12;3.70;;;;;;;1.92;54.38;103122.53;1740872;82;21345;-60
2021/10/08 03:34:19;;;;;;;8.73;3.30;;;;;;;1.90;54.42;103120.41;1741242;82;21364;-60
2021/10/08 03:37:01;;;;;;;6.40;3.45;;;;;;;1.91;54.43;103118.69;1740872;82;21198;-61
2021/10/08 03:39:37;;;;;;;9.88;3.40;;;;;;;1.92;54.52;103128.13;1739536;82;21139;-60
2021/10/08 03:42:17;;;;;;;7.58;3.87;;;;;;;1.92;54.54;103134.59;1740500;82;21191;-60
2021/10/08 03:44:57;;;;;;;7.17;3.33;;;;;;;1.94;54.58;103135.43;1739882;82;21278;-60
2021/10/08 03:48:20;;;;;;;5.17;3.22;;;;;;;1.95;54.57;103138.45;1740648;82;21733;-60
2021/10/08 03:50:14;;;;;;;5.72;3.35;;;;;;;1.97;54.51;103138.86;1718148;82;21278;-60
2021/10/08 03:52:52;;;;;;;6.83;3.08;;;;;;;2.04;54.54;103147.42;1740299;82;21293;-60
2021/10/08 03:55:30;;;;;;;9.25;2.92;;;;;;;2.09;54.48;103144.37;1741272;82;21155;-60
2021/10/08 03:58:03;;;;;;;11.95;3.95;;;;;;;2.19;54.37;103150.32;1740123;82;21163;-60
2021/10/08 04:00:42;;;;;;;7.15;3.25;;;;;;;2.31;54.18;103144.63;1741474;82;21832;-62
2021/10/08 04:03:25;;;;;;;10.23;3.47;;;;;;;2.43;54.02;103148.39;1714236;82;21179;-61
2021/10/08 04:06:03;;;;;;;9.75;3.72;;;;;;;2.62;53.75;103151.65;1739495;82;21159;-62
2021/10/08 04:08:40;;;;;;;17.05;5.30;;;;;;;2.93;53.21;103145.28;1739736;82;21297;-61
2021/10/08 04:11:22;;;;;;;30.02;8.60;;;;;;;3.38;52.38;103152.91;1739748;82;21247;-61
2021/10/08 04:14:00;;;;;;;22.95;7.65;;;;;;;3.85;51.57;103148.34;1741025;82;21203;-62
2021/10/08 04:16:38;;;;;;;13.65;4.70;;;;;;;4.56;50.23;103152.36;1740932;82;21263;-63
2021/10/08 04:19:12;;;;;;;7.75;4.42;;;;;;;5.33;48.51;103160.77;1740921;82;21278;-62
2021/10/08 04:21:46;;;;;;;8.83;4.08;;;;;;;6.05;46.95;103163.50;1741586;82;21147;-63
2021/10/08 04:24:21;;;;;;;10.48;4.47;;;;;;;6.66;45.47;103159.36;1741437;82;21156;-62
2021/10/08 04:26:55;;;;;;;9.33;4.20;;;;;;;7.13;44.00;103161.95;1742965;81;21256;-62
2021/10/08 04:29:33;;;;;;;9.23;4.03;;;;;;;7.64;42.84;103163.48;1742578;81;21192;-63
2021/10/08 04:32:08;;;;;;;8.58;3.65;;;;;;;8.09;41.72;103170.73;1749968;81;21142;-61
2021/10/08 04:34:43;;;;;;;6.42;3.95;;;;;;;8.66;40.55;103174.48;1742845;81;21355;-61
2021/10/08 04:37:19;;;;;;;11.93;3.87;;;;;;;9.26;39.58;103172.74;1742703;81;21215;-62
2021/10/08 04:39:52;;;;;;;18.02;4.58;;;;;;;9.87;38.39;103184.30;1748852;81;21918;-62
2021/10/08 04:42:27;;;;;;;12.88;4.58;;;;;;;10.42;37.28;103172.92;1746465;81;21268;-62
2021/10/08 04:45:00;;;;;;;13.83;5.80;;;;;;;10.80;36.40;103183.93;1743401;81;21297;-62
2021/10/08 04:47:35;;;;;;;18.20;7.03;;;;;;;11.07;35.74;103182.73;1741902;81;21275;-62
2021/10/08 04:50:12;;;;;;;20.90;7.35;;;;;;;11.38;35.25;103182.19;1733715;82;21271;-63
2021/10/08 04:52:49;;;;;;;14.63;7.10;;;;;;;11.87;34.58;103184.73;1743567;80;21225;-62
2021/10/08 04:55:25;;;;;;;12.58;5.72;;;;;;;12.48;33.69;103186.03;1718220;83;21138;-61
2021/10/08 04:58:01;;;;;;;23.32;9.10;;;;;;;12.99;32.58;103179.02;1730213;80;21215;-59
2021/10/08 05:00:37;;;;;;;40.35;10.65;;;;;;;13.41;31.87;103192.08;1735306;80;21783;-64
2021/10/08 05:03:13;;;;;;;26.80;9.63;;;;;;;13.68;31.22;103188.86;1710142;82;22550;-65
2021/10/08 05:05:50;;;;;;;17.35;7.22;;;;;;;13.79;30.84;103197.00;1736521;81;22309;-64
2021/10/08 05:08:24;;;;;;;17.15;6.22;;;;;;;13.44;30.91;103192.37;1737351;81;22737;-65
2021/10/08 05:10:58;;;;;;;11.22;5.78;;;;;;;12.86;31.35;103195.89;1733411;81;21359;-64
2021/10/08 05:13:36;;;;;;;13.28;5.92;;;;;;;12.64;31.90;103196.15;1744987;81;21114;-61
2021/10/08 05:16:09;;;;;;;11.50;6.12;;;;;;;12.66;31.87;103197.38;1743445;81;21850;-63
2021/10/08 05:18:43;;;;;;;11.55;5.72;;;;;;;12.48;31.97;103205.74;1742591;81;21303;-65
2021/10/08 05:21:23;;;;;;;13.15;6.67;;;;;;;12.26;32.31;103210.35;1725923;82;21182;-61
2021/10/08 05:23:58;;;;;;;10.50;5.80;;;;;;;12.27;32.59;103213.37;1735501;81;21224;-61
2021/10/08 05:26:32;;;;;;;11.43;5.50;;;;;;;12.73;32.48;103211.91;1736726;81;21767;-65
2021/10/08 05:29:07;;;;;;;12.53;5.97;;;;;;;13.55;31.54;103216.32;1730537;82;21332;-62
2021/10/08 05:31:41;;;;;;;12.53;5.65;;;;;;;14.39;30.28;103216.41;1733444;81;22183;-59
2021/10/08 05:34:14;;;;;;;10.82;5.60;;;;;;;14.87;29.56;103199.48;1736214;81;21168;-61
2021/10/08 05:36:51;;;;;;;8.98;5.47;;;;;;;15.33;28.89;103201.84;1730470;81;21269;-62
2021/10/08 05:39:27;;;;;;;8.38;5.15;;;;;;;15.83;28.31;103201.33;1732676;81;21240;-62
2021/10/08 05:42:02;;;;;;;15.68;7.67;;;;;;;16.31;27.56;103195.92;1740972;81;21186;-61
2021/10/08 05:44:36;;;;;;;9.73;7.12;;;;;;;16.69;26.98;103194.72;1743659;81;21487;-62
2021/10/08 05:47:11;;;;;;;12.85;6.60;;;;;;;17.06;26.42;103192.55;1745338;81;21284;-60
2021/10/08 05:49:46;;;;;;;8.83;6.05;;;;;;;17.16;26.10;103202.02;1727533;82;21489;-61
2021/10/08 05:52:19;;;;;;;8.58;5.72;;;;;;;17.34;25.92;103196.73;1739127;81;21382;-66
2021/10/08 05:54:52;;;;;;;12.45;6.05;;;;;;;17.58;25.41;103202.95;1746601;81;21549;-66
2021/10/08 05:57:25;;;;;;;10.75;6.17;;;;;;;17.84;25.32;103201.92;1746393;81;21166;-62
2021/10/08 05:59:59;;;;;;;11.50;5.87;;;;;;;18.21;24.92;103204.52;1748421;81;21304;-63
2021/10/08 06:02:35;;;;;;;12.03;6.10;;;;;;;18.54;24.57;103193.57;1731093;82;21792;-64
2021/10/08 06:05:09;;;;;;;11.33;6.37;;;;;;;19.01;24.23;103188.56;1722172;81;21290;-63
2021/10/08 06:07:42;;;;;;;9.05;5.80;;;;;;;19.61;23.75;103193.51;1704300;81;22290;-62
2021/10/08 06:10:18;;;;;;;13.65;7.00;;;;;;;20.30;22.45;103190.88;1729207;82;21159;-60
2021/10/08 06:12:54;;;;;;;18.15;7.50;;;;;;;20.71;22.06;103190.89;1727918;80;21205;-62
2021/10/08 06:15:27;;;;;;;13.22;7.78;;;;;;;20.73;22.02;103184.94;1731729;82;22734;-59
2021/10/08 06:18:01;;;;;;;13.08;7.45;;;;;;;20.76;21.78;103183.84;1713867;82;21342;-62
2021/10/08 06:20:36;;;;;;;16.40;8.25;;;;;;;20.96;21.40;103183.45;1727445;82;21330;-62
2021/10/08 06:23:11;;;;;;;21.90;9.90;;;;;;;21.16;21.07;103189.27;1715860;81;21890;-63
2021/10/08 06:25:44;;;;;;;20.37;9.23;;;;;;;21.13;20.92;103190.38;1709805;81;21312;-63
2021/10/08 06:28:17;;;;;;;17.20;9.00;;;;;;;21.07;20.92;103190.90;1680009;83;21201;-66
2021/10/08 06:30:50;;;;;;;18.05;10.08;;;;;;;21.35;20.76;103186.16;1735854;80;21926;-62
2021/10/08 06:33:27;;;;;;;23.10;12.18;;;;;;;21.72;20.37;103197.55;1700288;82;21295;-59
2021/10/08 06:36:01;;;;;;;20.32;10.03;;;;;;;22.00;20.10;103189.61;1712278;81;21395;-65
2021/10/08 06:38:44;;;;;;;21.30;10.80;;;;;;;22.32;19.63;103193.83;1707537;81;21177;-62
2021/10/08 06:41:17;;;;;;;21.37;10.65;;;;;;;22.55;18.47;103196.04;1731226;82;21850;-62
2021/10/08 06:43:50;;;;;;;;;;;;;;;22.38;18.41;103182.59;1738087;80;21813;-64
2021/10/08 06:46:24;;;;;;;22.65;11.20;;;;;;;22.11;18.58;103184.12;1718244;82;20320;-63
2021/10/08 06:48:58;;;;;;;25.25;12.05;;;;;;;21.93;18.66;103196.49;1709261;81;21181;-64
2021/10/08 06:51:35;;;;;;;29.77;11.88;;;;;;;21.96;18.33;103190.04;1734421;82;21295;-66
2021/10/08 06:54:13;;;;;;;19.05;11.45;;;;;;;21.94;18.38;103185.34;1719837;82;21879;-63
2021/10/08 06:56:50;;;;;;;20.10;10.45;;;;;;;21.87;18.33;103180.21;1716451;82;21803;-62
2021/10/08 06:59:27;;;;;;;20.55;10.30;;;;;;;21.64;18.08;103194.23;1716860;82;21185;-62
2021/10/08 07:02:01;;;;;;;19.55;10.98;;;;;;;21.28;18.41;103175.69;1717031;82;21231;-61
2021/10/08 07:04:36;;;;;;;27.52;11.63;;;;;;;21.11;18.54;103174.99;1718145;82;21387;-61
2021/10/08 07:07:13;;;;;;;20.92;11.40;;;;;;;21.25;18.65;103176.47;1716166;82;21489;-62
2021/10/08 07:09:51;;;;;;;21.95;12.03;;;;;;;21.49;18.80;103176.45;1720198;82;21131;-64
2021/10/08 07:12:30;;;;;;;24.92;11.50;;;;;;;21.78;18.60;103175.69;1740079;80;21189;-64
2021/10/08 07:15:15;;;;;;;27.00;11.95;;;;;;;21.98;18.20;103164.06;1739473;80;21184;-59
2021/10/08 07:17:51;;;;;;;24.63;10.90;;;;;;;22.00;17.91;103162.94;1735339;80;21141;-62
2021/10/08 07:20:27;;;;;;;25.95;11.97;;;;;;;22.03;18.30;103156.48;1741618;80;21188;-62
2021/10/08 07:23:02;;;;;;;18.92;8.05;;;;;;;22.33;18.08;103150.97;1736476;81;21514;-66
2021/10/08 07:25:39;;;;;;;19.95;7.10;;;;;;;22.40;16.41;103181.44;1737521;80;21720;-64
2021/10/08 07:28:13;;;;;;;23.98;7.12;;;;;;;22.03;16.36;103142.66;1729822;82;21359;-67
2021/10/08 07:30:54;;;;;;;24.00;6.25;;;;;;;21.74;16.32;103143.59;1706895;81;21244;-64
2021/10/08 07:33:28;;;;;;;16.10;6.65;;;;;;;21.41;16.41;103142.99;1707534;81;21213;-61
2021/10/08 07:36:02;;;;;;;19.02;7.08;;;;;;;21.23;16.61;103145.94;1733963;82;22210;-66
2021/10/08 07:38:36;;;;;;;58.75;28.55;;;;;;;21.11;16.81;103149.69;1721389;81;21280;-67
2021/10/08 07:41:11;;;;;;;27.30;14.78;;;;;;;21.24;17.06;103134.32;1722664;82;21374;-64
2021/10/08 07:43:45;;;;;;;17.15;7.72;;;;;;;21.32;16.84;103133.16;1696642;81;21379;-64
2021/10/08 07:46:24;;;;;;;15.00;7.40;;;;;;;21.33;16.72;103133.98;1707067;81;21299;-62
2021/10/08 07:48:56;;;;;;;33.85;8.95;;;;;;;21.48;16.74;103159.27;1718808;82;21341;-62
2021/10/08 07:51:30;;;;;;;18.90;8.05;;;;;;;21.42;16.78;103144.66;1718656;82;21390;-61
2021/10/08 07:54:06;;;;;;;18.87;8.45;;;;;;;21.18;16.74;103144.20;1651014;81;2514524;-68
2021/10/08 07:56:39;;;;;;;27.90;10.05;;;;;;;21.10;17.21;103141.84;1709676;82;21467;-63
2021/10/08 07:59:12;;;;;;;41.28;24.55;;;;;;;21.03;17.15;103132.67;1702553;83;21318;-59
2021/10/08 08:01:48;;;;;;;23.95;13.90;;;;;;;20.86;17.45;103128.82;1706577;83;21344;-65
2021/10/08 08:04:27;;;;;;;17.42;8.65;;;;;;;21.05;17.55;103127.59;1701797;83;22248;-64
2021/10/08 08:07:00;;;;;;;18.37;9.65;;;;;;;21.49;17.24;103135.13;1699993;83;21361;-62
2021/10/08 08:09:34;;;;;;;19.30;8.15;;;;;;;21.70;16.65;103144.86;1703296;83;21311;-66
2021/10/08 08:12:08;;;;;;;24.37;8.15;;;;;;;21.39;16.76;103124.97;1703417;83;21842;-64
2021/10/08 08:14:42;;;;;;;25.97;8.93;;;;;;;21.01;16.64;103106.66;1699414;83;21319;-63
2021/10/08 08:17:15;;;;;;;19.17;7.12;;;;;;;20.74;17.08;103108.59;1700502;83;21310;-64
2021/10/08 08:19:48;;;;;;;;;;;;;;;20.83;16.71;103119.28;1701675;83;22562;-63
2021/10/08 08:22:21;;;;;;;73.05;33.30;;;;;;;20.92;16.64;103104.81;1699359;83;20257;-60
2021/10/08 08:24:54;;;;;;;20.43;9.13;;;;;;;20.86;17.06;103111.52;1701550;83;21346;-67
2021/10/08 08:27:29;;;;;;;15.35;8.30;;;;;;;21.06;16.71;103109.32;1706411;83;21318;-62
2021/10/08 08:30:08;;;;;;;19.30;6.85;;;;;;;21.10;16.75;103113.87;1707408;83;21362;-64
2021/10/08 08:32:44;;;;;;;17.75;6.47;;;;;;;21.15;16.72;103106.31;1704934;83;21335;-64
2021/10/08 08:35:20;;;;;;;13.45;6.20;;;;;;;21.31;16.26;103162.59;1704669;83;21221;-63
2021/10/08 08:37:53;;;;;;;20.23;6.33;;;;;;;21.09;16.26;103109.02;1702919;83;21307;-65
2021/10/08 08:40:29;;;;;;;16.50;7.20;;;;;;;20.92;16.26;103133.59;1705166;83;21252;-66
2021/10/08 08:43:01;;;;;;;;;;;;;;;20.79;16.73;103105.04;1705634;83;21232;-67
2021/10/08 08:45:37;;;;;;;20.90;7.22;;;;;;;20.77;16.79;103099.86;1683759;83;20700;-68
2021/10/08 08:48:13;;;;;;;14.80;7.85;;;;;;;20.72;16.69;103094.09;1703973;81;21227;-63
2021/10/08 08:50:51;;;;;;;19.70;9.15;;;;;;;20.71;16.61;103099.05;1680007;83;21989;-66
2021/10/08 08:53:24;;;;;;;17.30;8.18;;;;;;;20.85;16.42;103115.14;1680138;83;21365;-62
2021/10/08 08:55:57;;;;;;;16.50;7.50;;;;;;;20.89;16.20;103101.93;1682622;83;21386;-65
2021/10/08 08:58:30;;;;;;;;;;;;;;;20.67;16.41;103092.31;1706849;81;22204;-68
2021/10/08 09:01:03;;;;;;;16.75;8.75;;;;;;;20.41;16.51;103100.85;1685261;83;20706;-66
2021/10/08 09:03:42;;;;;;;14.55;9.18;;;;;;;19.92;16.74;103090.81;1703660;81;21299;-67
2021/10/08 09:06:17;;;;;;;22.02;9.28;;;;;;;19.60;17.10;103096.16;1709012;81;21299;-66
2021/10/08 09:08:50;;;;;;;23.30;11.00;;;;;;;19.42;17.43;103085.69;1686911;83;22235;-62
2021/10/08 09:11:25;;;;;;;20.12;10.70;;;;;;;19.26;17.59;103098.03;1712699;81;21306;-67
2021/10/08 09:14:21;;;;;;;29.15;12.00;;;;;;;18.95;18.00;103092.63;1674759;83;21337;-65
2021/10/08 09:17:19;;;;;;;20.12;10.23;;;;;;;18.75;18.29;103088.89;1703420;81;21821;-66
2021/10/08 09:20:02;;;;;;;31.20;20.08;;;;;;;18.65;18.27;103079.98;1692030;83;21290;-63
2021/10/08 09:22:49;;;;;;;21.83;11.63;;;;;;;18.65;18.27;103079.98;1672307;83;21291;-66
2021/10/08 09:25:36;;;;;;;19.12;10.50;;;;;;;18.52;18.52;103081.89;1686340;83;21306;-67
2021/10/08 09:28:13;;;;;;;16.10;10.60;;;;;;;17.85;19.26;103076.41;1681495;84;21184;-63
2021/10/08 09:30:54;;;;;;;19.32;9.68;;;;;;;17.85;19.26;103076.41;1709167;81;21217;-65
2021/10/08 09:33:26;;;;;;;25.12;11.80;;;;;;;17.73;19.43;103079.98;1704205;83;21301;-63
2021/10/08 09:36:01;;;;;;;26.17;13.00;;;;;;;17.58;19.67;103077.63;1705575;83;21327;-62
2021/10/08 09:38:45;;;;;;;21.95;9.80;;;;;;;17.42;19.63;103067.27;1709426;83;21283;-66
2021/10/08 09:41:20;;;;;;;21.85;10.08;;;;;;;17.17;19.79;103078.79;1705941;83;21867;-64
2021/10/08 09:43:55;;;;;;;20.00;9.23;;;;;;;16.67;20.00;103082.88;1705657;83;21208;-61
2021/10/08 09:46:28;;;;;;;20.17;10.58;;;;;;;16.37;20.61;103061.16;1707971;83;21330;-62
2021/10/08 09:49:02;;;;;;;28.98;11.12;;;;;;;16.13;21.28;103067.64;1705196;83;22255;-66
2021/10/08 09:51:36;;;;;;;14.68;9.13;;;;;;;15.84;20.86;103068.75;1702819;83;21706;-65
2021/10/08 09:54:09;;;;;;;20.57;12.33;;;;;;;15.38;20.70;103065.12;1697832;83;21692;-66
2021/10/08 09:56:43;;;;;;;19.73;10.43;;;;;;;14.94;21.54;103062.31;1697065;83;21307;-69
2021/10/08 09:59:18;;;;;;;18.20;9.88;;;;;;;14.59;21.92;103048.20;1707614;83;21359;-68
2021/10/08 10:01:52;;;;;;;20.43;9.55;;;;;;;14.31;22.23;103048.19;1704515;83;21220;-65
2021/10/08 10:04:26;;;;;;;24.18;11.08;;;;;;;14.11;21.96;103063.02;1659515;83;21370;-64
2021/10/08 10:06:59;;;;;;;;;;;;;;;13.78;22.40;103047.37;1675903;83;21206;-67
2021/10/08 10:09:35;;;;;;;24.63;10.90;;;;;;;13.43;23.28;103038.03;1703810;83;20703;-66
2021/10/08 10:12:17;;;;;;;32.67;15.65;;;;;;;13.16;23.90;103042.23;1697966;83;21873;-67
2021/10/08 10:14:52;;;;;;;41.92;17.87;;;;;;;13.07;24.10;103041.41;1702608;83;21385;-62
2021/10/08 10:17:29;;;;;;;40.63;18.80;;;;;;;12.99;24.37;103031.27;1679626;83;21300;-66
2021/10/08 10:20:05;;;;;;;27.95;11.40;;;;;;;12.99;23.86;103034.39;1703163;83;21363;-61
2021/10/08 10:22:47;;;;;;;21.55;10.93;;;;;;;12.94;24.03;103028.53;1699538;83;21224;-64
2021/10/08 10:25:32;;;;;;;22.45;11.08;;;;;;;12.82;24.59;103031.37;1703293;83;21358;-61
2021/10/08 10:28:08;;;;;;;21.55;9.85;;;;;;;12.71;24.95;103024.51;1705469;83;21331;-63
2021/10/08 10:30:43;;;;;;;22.85;10.10;;;;;;;12.63;25.45;103023.59;1698099;83;21281;-64
2021/10/08 10:33:35;;;;;;;21.05;10.60;;;;;;;12.63;25.18;103028.86;1703383;83;21327;-60
2021/10/08 10:40:37;;;;;;;26.42;10.85;;;;;;;12.43;25.06;103013.78;1691134;84;21327;-63
2021/10/08 10:43:26;;;;;;;21.87;11.20;;;;;;;12.35;25.29;103010.69;1690711;84;21410;-60
2021/10/08 10:46:45;;;;;;;23.98;11.08;;;;;;;12.33;25.85;103002.91;1689093;84;21370;-63
2021/10/08 10:52:13;;;;;;;30.20;13.62;;;;;;;12.38;25.82;103011.39;1691178;84;21350;-61
2021/10/08 10:54:53;;;;;;;27.35;13.45;;;;;;;12.34;25.81;102994.11;1691618;84;21335;-63
2021/10/08 10:57:35;;;;;;;27.07;13.28;;;;;;;12.31;25.86;102996.89;1688899;84;21363;-65
2021/10/08 11:00:25;;;;;;;29.02;13.68;;;;;;;12.26;25.96;102990.17;1692008;84;22131;-62
2021/10/08 11:03:20;;;;;;;25.97;14.30;;;;;;;12.26;25.96;102996.28;1690999;84;21362;-61
2021/10/08 11:06:20;;;;;;;24.98;13.35;;;;;;;12.23;26.19;102999.55;1690723;84;21346;-61
2021/10/08 11:09:17;;;;;;;28.50;13.05;;;;;;;12.20;25.75;102998.38;1690655;84;21213;-62
2021/10/08 11:11:47;;;;;;;24.50;11.15;;;;;;;12.17;25.70;103011.21;1688203;84;21220;-62
2021/10/08 11:18:39;;;;;;;16.10;8.55;;;;;;;12.18;25.15;102987.11;1692276;84;21200;-64
2021/10/08 11:25:26;;;;;;;11.22;6.60;;;;;;;12.22;25.55;102989.50;1693497;84;21164;-61
2021/10/08 11:28:02;;;;;;;15.20;7.42;;;;;;;12.18;24.79;102987.94;1692369;84;21240;-59
2021/10/08 11:30:38;;;;;;;22.75;9.80;;;;;;;12.14;25.21;102989.89;1691250;84;21232;-61
2021/10/08 11:33:13;;;;;;;34.48;16.45;;;;;;;12.17;25.39;102988.89;1691809;84;21527;-60
2021/10/08 11:35:50;;;;;;;13.00;4.70;;;;;;;12.20;25.44;102979.55;1692872;84;21293;-59
2021/10/08 11:38:25;;;;;;;41.13;15.05;;;;;;;12.20;25.26;102974.29;1691986;84;21535;-61
2021/10/08 11:40:59;;;;;;;10.48;5.12;;;;;;;12.20;25.09;102983.94;1693355;84;21244;-59
2021/10/08 11:43:36;;;;;;;8.18;3.72;;;;;;;12.21;25.12;102987.79;1684416;84;21212;-59
2021/10/08 11:46:50;;;;;;;9.25;3.85;;;;;;;12.24;24.97;102973.64;1692730;84;21227;-60
2021/10/08 11:49:45;;;;;;;8.63;3.30;;;;;;;12.24;24.78;102973.19;1662113;86;21350;-61
2021/10/08 11:56:27;;;;;;;13.43;3.25;;;;;;;12.22;24.98;102976.37;1664184;86;21181;-60
2021/10/08 11:59:09;;;;;;;12.78;3.10;;;;;;;12.18;24.85;102969.09;1662322;86;21231;-60
2021/10/08 12:01:43;;;;;;;10.40;2.70;;;;;;;12.17;25.05;102973.13;1664108;86;21239;-60
2021/10/08 12:08:41;;;;;;;3.45;1.80;;;;;;;12.21;25.27;102963.30;1663522;84;21511;-62
2021/10/08 12:11:21;;;;;;;5.90;2.30;;;;;;;12.24;25.35;102962.69;1662437;86;21216;-64
2021/10/08 12:13:58;;;;;;;12.80;1.80;;;;;;;12.24;25.23;102957.89;1689741;84;21196;-62
2021/10/08 12:16:44;;;;;;;5.95;1.75;;;;;;;12.25;24.82;102960.91;1692277;84;21260;-62
2021/10/08 12:19:19;;;;;;;4.33;1.70;;;;;;;12.24;24.52;102955.27;1690805;84;21615;-59
2021/10/08 12:21:58;;;;;;;4.92;1.30;;;;;;;12.21;24.21;102969.86;1663211;84;21354;-62
2021/10/08 12:28:39;;;;;;;4.40;1.52;;;;;;;12.22;23.84;102967.17;1691321;83;21474;-65
2021/10/08 12:31:14;;;;;;;15.08;1.52;;;;;;;12.17;23.89;102948.18;1691845;84;21646;-62
2021/10/08 12:42:21;;;;;;;53.60;17.57;;;;;;;12.17;24.04;102945.55;1692115;84;21993;-62
2021/10/08 12:49:03;;;;;;;6.05;1.32;;;;;;;12.16;23.88;102939.45;1691327;83;21188;-64